Flight Track Log - Related Links

Times and Time Zones

All times are in EDT time to prevent confusion due to time zone crossing. See the SWA2322 flight status page for this flight to view local times or setup timezone preferences in your user account.

Time Position Orientation Groundspeed Altitude Reporting Facility
EDT Latitude Longitude Course Direction KTS MPH feet Rate Location/Type
Thu 09:10:31 AM 32.9811 -80.0003 North 262 302 4,300  Level Jacksonville Center
Thu 09:11:31 AM 33.0533 -79.9658 22° Northeast 276 318 8,100 3,450 Climbing Jacksonville Center
Thu 09:12:31 AM 33.1236 -79.9336 21° North 289 333 11,200 3,450 Climbing Jacksonville Center
Thu 09:13:31 AM 33.1997 -79.8939 24° Northeast 294 338 15,000 3,550 Climbing Jacksonville Center
Thu 09:14:31 AM 33.2822 -79.8464 26° Northeast 304 350 18,300 2,300 Climbing Jacksonville Center
Thu 09:15:00 AM 33.4251 -79.8716 North  Level FlightAware
Thu 09:15:31 AM 33.3747 -79.7886 28° Northeast 333 383 19,600  Level Jacksonville Center
Thu 09:16:31 AM 33.4728 -79.7103 34° Northeast 382 440 22,300 2,000 Climbing Jacksonville Center
Thu 09:17:31 AM 33.5753 -79.6319 32° Northeast 416 479 23,600 1,900 Climbing Jacksonville Center
Thu 09:18:31 AM 33.6794 -79.5531 32° Northeast 428 493 26,100 2,250 Climbing Jacksonville Center
Thu 09:19:31 AM 33.7858 -79.4692 33° Northeast 438 504 28,100 1,850 Climbing Jacksonville Center
Thu 09:20:31 AM 33.9022 -79.3797 33° Northeast 450 518 29,800 1,850 Climbing Jacksonville Center
Thu 09:21:31 AM 34.0167 -79.2922 32° Northeast 464 534 31,800 2,050 Climbing Jacksonville Center
Thu 09:22:31 AM 34.1267 -79.2050 33° Northeast 475 547 33,900 980 Climbing Jacksonville Center
Thu 09:24:47 AM 34.3669 -79.0136 33° Northeast 490 564 35,000 337 Climbing Washington Center
Thu 09:25:47 AM 34.4781 -78.9275 33° Northeast 476 548 35,000  Level Washington Center
Thu 09:26:47 AM 34.5847 -78.8361 35° Northeast 476 548 35,000  Level Washington Center
Thu 09:27:47 AM 34.6975 -78.7572 30° Northeast 476 548 35,000  Level Washington Center
Thu 09:28:47 AM 34.8181 -78.6986 22° Northeast 469 540 35,000 900 Level Washington Center
Thu 09:29:47 AM 34.9383 -78.6400 22° Northeast 464 534 36,800 1,650 Climbing Washington Center
Thu 09:30:47 AM 35.0567 -78.5808 22° Northeast 459 528 38,300 1,550 Climbing Washington Center
Thu 09:31:47 AM 35.1731 -78.5217 23° Northeast 459 528 39,900 1,250 Climbing Washington Center
Thu 09:32:47 AM 35.2892 -78.4625 23° Northeast 454 522 40,800 550 Climbing Washington Center
Thu 09:33:47 AM 35.4097 -78.3953 24° Northeast 454 522 41,000 100 Climbing Washington Center
Thu 09:34:47 AM 35.5489 -78.3286 21° North 477 549 41,000  Level Washington Center
Thu 09:35:47 AM 35.6669 -78.2739 21° North 477 549 41,000  Level Washington Center
Thu 09:36:47 AM 35.7894 -78.2114 22° Northeast 471 542 41,000 -800 Level Washington Center
Thu 09:37:47 AM 35.9075 -78.1539 22° Northeast 465 535 39,400 -6,000 Descending Washington Center
Thu 09:38:47 AM 36.0236 -78.0961 22° Northeast 450 518 29,000 -2,500 Descending Washington Center
Thu 09:39:47 AM 36.1417 -78.0356 22° Northeast 450 518 34,400 1,600 Climbing Washington Center
Thu 09:40:47 AM 36.2533 -77.9772 23° Northeast 444 511 32,200 -2,150 Descending Washington Center
Thu 09:41:47 AM 36.3631 -77.9211 22° Northeast 434 499 30,100 -1,600 Descending Washington Center
Thu 09:42:47 AM 36.4556 -77.8722 23° Northeast 418 481 29,000 -550 Descending Washington Center
Thu 09:43:47 AM 36.5653 -77.8133 23° Northeast 418 481 29,000 -250 Level Washington Center
Thu 09:44:47 AM 36.6831 -77.7544 22° Northeast 425 489 28,500 -950 Descending Washington Center
Thu 09:45:47 AM 36.8033 -77.6906 23° Northeast 452 520 27,100 -750 Descending Washington Center
Thu 09:46:47 AM 36.9275 -77.6236 23° Northeast 466 536 27,000 -50 Descending Washington Center
Thu 09:47:47 AM 37.0494 -77.5619 22° Northeast 466 536 27,000  Level Washington Center
Thu 09:48:47 AM 37.1717 -77.4972 23° Northeast 471 542 27,000  Level Washington Center
Thu 09:49:47 AM 37.2956 -77.4325 23° Northeast 476 548 27,000 -800 Level Washington Center
Thu 09:50:47 AM 37.4178 -77.3647 24° Northeast 481 554 25,400 -2,000 Descending Washington Center
Thu 09:51:47 AM 37.5436 -77.3100 19° North 481 554 23,000 -1,200 Descending Washington Center
Thu 09:52:47 AM 37.6711 -77.2842 North 466 536 23,000  Level Washington Center
Thu 09:53:47 AM 37.8008 -77.2581 North 461 531 23,000  Level Washington Center
Thu 09:54:47 AM 37.9306 -77.2319 North 467 537 23,000  Level Washington Center
Thu 09:55:47 AM 38.0581 -77.2083 North 467 537 23,000 -1,250 Level Washington Center
Thu 09:56:47 AM 38.1814 -77.1819 10° North 461 531 20,500 -2,750 Descending Washington Center
Thu 09:57:47 AM 38.2986 -77.1528 11° North 444 511 17,500 -2,700 Descending Washington Center
Thu 09:58:47 AM 38.4056 -77.1150 15° North 409 471 15,100 -2,150 Descending Washington Center
Thu 09:59:47 AM 38.4817 -77.0186 45° Northeast 377 434 13,200 -1,850 Descending Washington Center
Thu 10:00:47 AM 38.5578 -76.9244 44° Northeast 377 434 11,400 -1,500 Descending Washington Center
Thu 10:01:47 AM 38.6361 -76.8275 44° Northeast 361 415 10,200 -1,150 Descending Washington Center
Thu 10:02:47 AM 38.6972 -76.7514 44° Northeast 333 383 9,100 -1,350 Descending Washington Center
Thu 10:03:47 AM 38.7397 -76.6617 59° Northeast 301 346 7,500 -1,576 Descending Washington Center
Thu 10:04:26 AM 38.7667 -76.6000 61° Northeast 296 341 6,500 -1,030 Descending Potomac TRACON
Thu 10:05:26 AM 38.8167 -76.5333 46° Northeast 279 321 5,800 -850 Descending Potomac TRACON
Thu 10:06:26 AM 38.8833 -76.5500 349° North 243 280 4,800 -900 Descending Potomac TRACON
Thu 10:07:26 AM 38.9500 -76.5833 339° North 245 282 4,000 -397 Descending Potomac TRACON
Thu 10:08:27 AM 38.9833 -76.6333 311° West 224 258 4,000  Level Potomac TRACON
Thu 10:09:27 AM 39.0167 -76.7000 303° West 209 241 4,000 -300 Level Potomac TRACON
Thu 10:10:27 AM 39.0500 -76.7667 303° West 212 244 3,400 -500 Descending Potomac TRACON
Thu 10:11:27 AM 39.0833 -76.8333 303° West 212 244 3,000 -200 Descending Potomac TRACON
Thu 10:12:27 AM 39.1000 -76.9000 288° West 207 238 3,000 -250 Level Potomac TRACON
Thu 10:13:27 AM 39.1500 -76.9333 333° Northwest 208 239 2,500 -500 Descending Potomac TRACON
Thu 10:14:27 AM 39.1833 -76.9000 38° Northeast 180 207 2,000 -500 Descending Potomac TRACON
Thu 10:15:27 AM 39.1833 -76.8333 90° East 167 192 1,500 -250 Descending Potomac TRACON
Thu 10:16:27 AM 39.1833 -76.7833 90° East 163 188 1,500 -350 Level Potomac TRACON
Thu 10:17:27 AM 39.1833 -76.7333 90° East 125 144 800 -700 Descending Potomac TRACON
Thu 10:19:00 AM 39.1667 -76.6667 84° East  Level FlightAware

Login

Don't have an account? Register now (free) for customized features, flight alerts, and more!